Time;durP1;ratioP1;P1;durP2;ratioP2;P2;SDS_P1;SDS_P2;PMS_P1;PMS_P2;Temp;Humidity;BMP_temperature;BMP_pressure;BME280_temperature;BME280_humidity;BME280_pressure;Samples;Min_cycle;Max_cycle;Signal;HPM_P1;HPM_P2
2022/08/04 00:02:15;;;;;;;3.23;2.93;;;17.70;99.90;18.10;97089.00;;;;5084626;28;20242;-69
2022/08/04 00:05:10;;;;;;;3.57;3.27;;;17.50;99.90;18.30;97088.00;;;;5094011;22;20245;-85
2022/08/04 00:08:07;;;;;;;3.90;3.60;;;17.40;99.90;18.40;97086.00;;;;5084499;28;20223;-85
2022/08/04 00:10:59;;;;;;;3.33;3.03;;;17.30;99.90;18.10;97088.00;;;;5071056;28;20217;-86
2022/08/04 00:13:55;;;;;;;3.37;3.07;;;17.30;99.90;18.20;97082.00;;;;5066935;28;20200;-86
2022/08/04 00:16:48;;;;;;;3.23;2.97;;;17.20;99.90;18.00;97084.00;;;;5065275;28;20203;-86
2022/08/04 00:19:41;;;;;;;3.73;3.30;;;17.10;99.90;18.30;97074.00;;;;5071803;28;20216;-86
2022/08/04 00:22:32;;;;;;;3.00;2.80;;;17.10;99.90;18.30;97075.00;;;;5072129;28;20306;-85
2022/08/04 00:25:21;;;;;;;3.93;3.50;;;17.10;99.90;18.00;97083.00;;;;5076070;28;20680;-86
2022/08/04 00:28:10;;;;;;;3.03;2.73;;;17.10;99.90;18.00;97082.00;;;;5075114;28;20225;-85
2022/08/04 00:30:59;;;;;;;3.53;3.23;;;17.00;99.90;18.30;97074.00;;;;5067041;28;20231;-86
2022/08/04 00:33:49;;;;;;;3.70;3.40;;;17.00;99.90;18.60;97080.00;;;;5062528;28;20196;-86
2022/08/04 00:36:38;;;;;;;3.90;2.87;;;17.10;99.90;18.10;97079.00;;;;5070138;28;20206;-86
2022/08/04 00:39:30;;;;;;;3.70;3.30;;;17.10;99.90;18.30;97080.00;;;;5071506;28;20226;-85
2022/08/04 00:42:41;;;;;;;2.93;2.73;;;17.10;99.90;18.10;97081.00;;;;5072963;28;20234;-86
2022/08/04 00:46:21;;;;;;;3.50;3.20;;;17.10;99.90;18.20;97082.00;;;;5074879;28;20206;-85
2022/08/04 00:50:06;;;;;;;2.80;2.60;;;17.00;99.90;18.30;97079.00;;;;5063406;28;20220;-86
2022/08/04 00:53:08;;;;;;;5.37;3.33;;;17.00;99.90;18.20;97079.00;;;;4991637;28;20242;-86
2022/08/04 00:56:38;;;;;;;3.30;3.00;;;17.00;99.90;17.40;97084.00;;;;4994627;28;20201;-86
2022/08/04 00:59:48;;;;;;;3.57;3.27;;;16.90;99.90;17.50;97080.00;;;;5076447;28;20238;-87
2022/08/04 01:02:51;;;;;;;4.33;4.03;;;16.70;99.90;17.60;97079.00;;;;5070059;28;20204;-85
2022/08/04 01:05:55;;;;;;;3.13;2.93;;;16.60;99.90;17.30;97084.00;;;;5067596;28;20211;-86
2022/08/04 01:09:02;;;;;;;3.20;3.00;;;16.60;99.90;17.40;97078.00;;;;5062282;28;20223;-86
2022/08/04 01:12:23;;;;;;;6.40;3.83;;;16.50;99.90;17.80;97077.00;;;;5074835;28;20214;-86
2022/08/04 01:15:20;;;;;;;3.20;3.00;;;16.50;99.90;18.00;97074.00;;;;5068257;28;20188;-85
2022/08/04 01:18:16;;;;;;;3.40;3.10;;;16.60;99.90;17.70;97072.00;;;;5070930;28;20540;-86
2022/08/04 01:21:51;;;;;;;3.87;3.57;;;16.60;99.90;17.40;97063.00;;;;5070410;28;20215;-85
2022/08/04 01:25:04;;;;;;;3.43;3.13;;;16.60;99.90;17.00;97058.00;;;;5077855;28;20208;-87
2022/08/04 01:28:21;;;;;;;3.97;3.57;;;16.40;99.90;17.30;97068.00;;;;5065760;28;20203;-86
2022/08/04 01:31:32;;;;;;;4.97;3.43;;;16.30;99.90;17.70;97069.00;;;;5067707;28;20236;-86
2022/08/04 01:34:23;;;;;;;3.73;3.43;;;16.30;99.90;17.80;97072.00;;;;5069148;28;20660;-86
2022/08/04 01:37:21;;;;;;;3.47;3.17;;;16.40;99.90;17.60;97067.00;;;;5068093;28;20215;-86
2022/08/04 01:40:15;;;;;;;3.40;3.10;;;16.40;99.90;17.20;97067.00;;;;5071563;28;20228;-85
2022/08/04 01:43:04;;;;;;;4.37;3.80;;;16.40;99.90;17.30;97067.00;;;;5069834;28;20206;-85
2022/08/04 01:45:59;;;;;;;4.00;3.20;;;16.30;99.90;17.40;97061.00;;;;5064583;28;20188;-85
2022/08/04 01:48:55;;;;;;;4.23;3.80;;;16.30;99.90;17.30;97058.00;;;;5061954;28;20220;-85
2022/08/04 01:51:45;;;;;;;5.20;3.93;;;16.20;99.90;17.20;97064.00;;;;5074134;28;20284;-86
2022/08/04 01:54:39;;;;;;;5.90;5.30;;;16.20;99.90;17.10;97054.00;;;;5072045;28;20205;-87
2022/08/04 01:57:29;;;;;;;5.50;4.33;;;16.10;99.90;16.90;97042.00;;;;5077351;28;20196;-85
2022/08/04 02:00:21;;;;;;;6.03;4.30;;;16.00;99.90;17.00;97052.00;;;;5073256;28;20247;-85
2022/08/04 02:03:12;;;;;;;4.00;3.70;;;16.00;99.90;17.20;97059.00;;;;5068327;28;20196;-86
2022/08/04 02:06:14;;;;;;;4.03;3.63;;;16.10;99.90;17.20;97060.00;;;;5070881;28;20230;-86
2022/08/04 02:09:12;;;;;;;4.53;4.13;;;16.10;99.90;17.40;97042.00;;;;5072744;28;20223;-86
2022/08/04 02:12:05;;;;;;;3.50;3.20;;;16.10;99.90;17.10;97051.00;;;;5070716;28;20223;-85
2022/08/04 02:15:04;;;;;;;4.13;3.83;;;16.10;99.90;17.00;97044.00;;;;5066069;28;20668;-86
2022/08/04 02:18:03;;;;;;;4.43;4.00;;;16.10;99.90;17.20;97054.00;;;;5065328;28;20208;-86
2022/08/04 02:20:58;;;;;;;4.77;3.80;;;16.10;99.90;17.20;97051.00;;;;5070482;28;20602;-86
2022/08/04 02:24:06;;;;;;;3.47;2.87;;;16.10;99.90;17.20;97041.00;;;;5068772;28;20200;-85
2022/08/04 02:26:58;;;;;;;4.30;3.37;;;16.10;99.90;17.10;97041.00;;;;5068407;28;20219;-86
2022/08/04 02:29:54;;;;;;;3.40;3.10;;;16.00;99.90;17.10;97035.00;;;;5066124;28;20595;-86
2022/08/04 02:32:47;;;;;;;4.20;3.80;;;16.00;99.90;17.30;97041.00;;;;5065732;28;20585;-86
2022/08/04 02:35:38;;;;;;;4.40;4.00;;;16.00;99.90;17.40;97029.00;;;;5066535;28;20227;-86
2022/08/04 02:38:41;;;;;;;7.20;3.73;;;16.00;99.90;17.40;97030.00;;;;5078246;28;20199;-86
2022/08/04 02:41:33;;;;;;;3.47;3.17;;;16.00;99.90;17.30;97034.00;;;;5077108;28;20219;-86
2022/08/04 02:44:23;;;;;;;3.67;3.37;;;16.10;99.90;17.00;97028.00;;;;5074853;28;20199;-86
2022/08/04 02:47:12;;;;;;;3.70;3.40;;;16.00;99.90;16.60;97021.00;;;;5068720;28;20203;-86
2022/08/04 02:50:02;;;;;;;3.67;3.37;;;15.90;99.90;16.60;97030.00;;;;5067597;28;20220;-85
2022/08/04 02:52:54;;;;;;;4.20;3.90;;;15.80;99.90;16.60;97022.00;;;;5074524;28;20207;-85
2022/08/04 02:55:45;;;;;;;5.33;3.83;;;15.70;99.90;16.50;97019.00;;;;5075420;28;20200;-87
2022/08/04 02:58:37;;;;;;;3.70;3.37;;;15.60;99.90;16.60;97022.00;;;;5075069;28;20203;-86
2022/08/04 03:01:26;;;;;;;4.47;4.07;;;15.60;99.90;16.60;97021.00;;;;5072544;28;20203;-86
2022/08/04 03:04:42;;;;;;;4.27;3.83;;;15.60;99.90;16.80;97024.00;;;;5075714;28;20212;-87
2022/08/04 03:08:29;;;;;;;6.27;3.73;;;15.60;99.90;16.60;97017.00;;;;5072694;28;20192;-86
2022/08/04 03:12:11;;;;;;;4.13;3.77;;;15.50;99.90;16.80;97008.00;;;;5078709;28;20223;-87
2022/08/04 03:15:35;;;;;;;4.40;4.03;;;15.60;99.90;16.90;97016.00;;;;5009682;28;20221;-87
2022/08/04 03:19:15;;;;;;;4.50;3.53;;;15.60;99.90;16.90;97014.00;;;;5069945;28;20204;-86
2022/08/04 03:22:52;;;;;;;4.60;4.13;;;15.60;99.90;16.80;97009.00;;;;5070399;28;20210;-86
2022/08/04 03:26:34;;;;;;;10.63;3.97;;;15.60;99.90;16.40;97013.00;;;;5075078;28;20216;-86
2022/08/04 03:30:12;;;;;;;4.40;3.63;;;15.60;99.90;16.20;97002.00;;;;5075281;28;20250;-86
2022/08/04 03:33:49;;;;;;;4.13;3.83;;;15.40;99.90;16.10;97003.00;;;;5074739;28;20211;-86
2022/08/04 03:37:21;;;;;;;4.40;4.00;;;15.30;99.90;16.30;97008.00;;;;5075703;28;20727;-86
2022/08/04 03:40:45;;;;;;;3.90;3.60;;;15.30;99.90;16.40;97009.00;;;;5072390;28;20236;-86
2022/08/04 03:44:14;;;;;;;4.83;4.43;;;15.30;99.90;16.40;97009.00;;;;5068966;28;20558;-85
2022/08/04 03:47:37;;;;;;;4.30;4.00;;;15.30;99.90;16.60;97009.00;;;;5056165;28;20233;-86
2022/08/04 03:54:33;;;;;;;5.47;4.63;;;15.40;99.90;16.60;97011.00;;;;5059927;28;20215;-86
2022/08/04 03:57:48;;;;;;;4.63;4.23;;;15.40;99.90;16.40;97018.00;;;;5076691;28;20195;-86
2022/08/04 04:00:47;;;;;;;4.90;4.50;;;15.40;99.90;16.30;97005.00;;;;5075912;28;20227;-86
2022/08/04 04:04:05;;;;;;;4.10;3.80;;;15.30;99.90;16.20;97009.00;;;;5072022;28;20204;-85
2022/08/04 04:07:23;;;;;;;4.73;4.20;;;15.30;99.90;16.60;97020.00;;;;5065184;28;20207;-86
2022/08/04 04:10:49;;;;;;;4.80;4.40;;;15.30;99.90;16.90;97016.00;;;;5068166;28;20220;-86
2022/08/04 04:14:11;;;;;;;4.93;4.53;;;15.40;99.90;16.90;97012.00;;;;5067357;28;20192;-86
2022/08/04 04:17:45;;;;;;;4.50;4.10;;;15.50;99.90;16.60;97002.00;;;;5077246;28;20207;-87
2022/08/04 04:21:24;;;;;;;5.27;3.87;;;15.50;99.90;16.40;97002.00;;;;5073704;28;20227;-85
2022/08/04 04:24:44;;;;;;;3.93;3.63;;;15.50;99.90;16.50;97008.00;;;;5076476;28;20204;-86
2022/08/04 04:27:50;;;;;;;4.53;3.80;;;15.40;99.90;16.50;97018.00;;;;5079775;28;20206;-86
2022/08/04 04:30:49;;;;;;;7.30;4.80;;;15.40;99.90;16.40;97014.00;;;;5068720;28;20222;-86
2022/08/04 04:33:54;;;;;;;5.73;4.53;;;15.40;99.90;16.50;97007.00;;;;5068587;28;20207;-86
2022/08/04 04:36:59;;;;;;;4.60;4.20;;;15.40;99.90;16.70;97016.00;;;;5067513;28;20200;-86
2022/08/04 04:40:07;;;;;;;4.50;4.10;;;15.50;99.90;16.70;97011.00;;;;5071066;28;20215;-86
2022/08/04 04:43:24;;;;;;;4.17;3.87;;;15.50;99.90;16.50;97023.00;;;;5074189;28;20624;-86
2022/08/04 04:46:23;;;;;;;5.67;4.33;;;15.50;99.90;16.30;97026.00;;;;5083794;28;20214;-87
2022/08/04 04:49:28;;;;;;;4.43;4.03;;;15.50;99.90;16.60;97018.00;;;;5080834;28;20202;-86
2022/08/04 04:52:27;;;;;;;4.50;4.10;;;15.50;99.90;16.90;97010.00;;;;5072018;28;20200;-86
2022/08/04 04:55:21;;;;;;;5.07;4.57;;;15.60;99.90;17.10;97016.00;;;;5078998;28;20215;-86
2022/08/04 04:58:15;;;;;;;5.00;4.50;;;15.70;99.90;17.10;97016.00;;;;5080326;28;20204;-86
2022/08/04 05:01:39;;;;;;;4.07;3.67;;;15.80;99.90;17.10;97013.00;;;;5070125;28;20234;-86
2022/08/04 05:05:15;;;;;;;4.50;3.40;;;15.90;99.90;17.20;97015.00;;;;5066692;28;20212;-86
2022/08/04 05:08:41;;;;;;;4.33;3.90;;;16.00;99.90;17.10;97020.00;;;;5074868;28;20188;-87
2022/08/04 05:11:53;;;;;;;4.20;3.80;;;16.00;99.90;17.40;97014.00;;;;5065928;28;20228;-85
2022/08/04 05:14:48;;;;;;;4.10;3.80;;;16.10;99.90;17.60;97021.00;;;;5062497;28;20208;-87
2022/08/04 05:17:41;;;;;;;5.87;4.03;;;16.30;99.90;17.90;97013.00;;;;5072135;28;20195;-87
2022/08/04 05:20:39;;;;;;;4.50;4.10;;;16.40;99.90;18.30;97011.00;;;;5072676;28;20212;-86
2022/08/04 05:23:32;;;;;;;5.57;4.97;;;16.60;99.90;18.40;97007.00;;;;5073610;28;20196;-86
2022/08/04 05:26:30;;;;;;;4.33;3.93;;;16.80;99.90;18.50;97018.00;;;;5069242;28;20204;-85
2022/08/04 05:29:28;;;;;;;5.47;5.07;;;16.90;99.90;18.70;97010.00;;;;5066371;28;20220;-86
2022/08/04 05:32:20;;;;;;;4.10;3.70;;;17.10;99.90;18.50;97017.00;;;;5062530;28;20231;-87
2022/08/04 05:35:14;;;;;;;4.23;3.83;;;17.20;99.90;18.40;97022.00;;;;5066795;28;20203;-89
2022/08/04 05:38:06;;;;;;;5.07;4.13;;;17.30;99.90;18.70;97014.00;;;;5065163;28;20208;-86
2022/08/04 05:40:55;;;;;;;5.33;4.17;;;17.40;99.90;18.80;97012.00;;;;5068172;28;20220;-88
2022/08/04 05:43:45;;;;;;;4.60;4.17;;;17.50;99.90;19.10;97014.00;;;;5065339;28;20211;-86
2022/08/04 05:46:36;;;;;;;6.37;3.97;;;17.60;99.90;19.10;97008.00;;;;5070468;28;20211;-86
2022/08/04 05:49:28;;;;;;;7.93;4.10;;;17.70;99.90;19.30;97008.00;;;;5067637;28;20216;-86
2022/08/04 05:52:18;;;;;;;4.70;4.37;;;17.80;99.90;19.50;97016.00;;;;5063845;28;20626;-86
2022/08/04 05:55:11;;;;;;;5.10;4.60;;;17.90;99.90;19.70;97019.00;;;;5071245;28;20211;-87
2022/08/04 05:58:02;;;;;;;4.50;4.10;;;18.10;99.90;20.10;97012.00;;;;5064704;28;20204;-87
2022/08/04 06:00:52;;;;;;;5.00;4.57;;;18.30;99.90;20.10;97015.00;;;;5075773;28;20228;-85
2022/08/04 06:03:46;;;;;;;7.30;5.40;;;18.40;99.90;20.30;97013.00;;;;5077314;28;20558;-87
2022/08/04 06:06:35;;;;;;;5.37;4.67;;;18.60;99.90;20.40;97002.00;;;;5065204;28;20688;-85
2022/08/04 06:09:24;;;;;;;8.30;4.43;;;18.80;99.90;20.60;97000.00;;;;5073523;28;20223;-86
2022/08/04 06:12:18;;;;;;;7.17;6.03;;;19.00;99.90;20.90;97007.00;;;;5079015;28;20227;-87
2022/08/04 06:15:09;;;;;;;5.33;4.83;;;19.20;99.90;21.30;97009.00;;;;5068782;28;20708;-87
2022/08/04 06:18:03;;;;;;;7.93;4.40;;;19.40;99.90;21.50;97006.00;;;;5067201;28;20199;-87
2022/08/04 06:20:56;;;;;;;8.33;5.53;;;19.60;99.90;21.80;97014.00;;;;5080262;28;20238;-87
2022/08/04 06:23:46;;;;;;;6.30;4.17;;;19.80;99.90;21.60;97007.00;;;;5078014;28;20196;-88
2022/08/04 06:26:37;;;;;;;7.50;4.30;;;20.00;99.90;21.80;97004.00;;;;5080114;28;20234;-87
2022/08/04 06:29:33;;;;;;;8.93;5.40;;;20.10;99.90;22.20;97008.00;;;;5076273;28;20223;-86
2022/08/04 06:32:27;;;;;;;7.73;4.37;;;20.30;99.90;22.60;97008.00;;;;5065914;28;20246;-86
2022/08/04 06:35:21;;;;;;;5.77;4.07;;;20.50;99.90;22.80;97002.00;;;;5074919;28;20200;-86
2022/08/04 06:38:12;;;;;;;8.03;4.13;;;20.70;99.90;23.10;97005.00;;;;5071691;28;20200;-86
2022/08/04 06:41:02;;;;;;;5.57;4.97;;;20.90;99.90;23.10;97003.00;;;;5070306;28;20226;-85
2022/08/04 06:43:52;;;;;;;6.80;4.07;;;21.10;99.90;23.40;97003.00;;;;5092212;22;20437;-75
2022/08/04 06:46:42;;;;;;;7.97;5.13;;;21.30;99.90;23.50;96999.00;;;;5081657;28;20198;-74
2022/08/04 06:49:32;;;;;;;9.67;5.40;;;21.50;99.90;23.60;97008.00;;;;5083320;28;20191;-74
2022/08/04 06:52:21;;;;;;;5.60;4.70;;;21.60;99.90;23.90;97001.00;;;;5082444;28;20222;-75
2022/08/04 06:55:12;;;;;;;7.27;4.67;;;21.80;99.90;24.10;96997.00;;;;5086026;28;20226;-75
2022/08/04 06:58:02;;;;;;;5.10;4.33;;;22.00;99.90;24.20;96993.00;;;;5083747;28;20448;-75
2022/08/04 07:00:52;;;;;;;10.40;6.33;;;22.10;99.90;24.20;97000.00;;;;5082274;28;20578;-74
2022/08/04 07:03:41;;;;;;;5.70;3.73;;;22.30;99.90;24.60;97002.00;;;;5073342;28;20215;-74
2022/08/04 07:06:30;;;;;;;9.57;5.47;;;22.50;99.90;24.60;97003.00;;;;5086020;28;20200;-75
2022/08/04 07:09:19;;;;;;;11.00;5.03;;;22.60;99.90;24.80;96999.00;;;;5085029;28;20206;-75
2022/08/04 07:12:11;;;;;;;5.67;4.73;;;22.80;99.90;25.00;96993.00;;;;5081916;28;20706;-74
2022/08/04 07:15:00;;;;;;;8.33;5.13;;;22.90;99.90;25.20;97002.00;;;;5089567;28;20224;-75
2022/08/04 07:17:51;;;;;;;7.23;4.60;;;23.10;99.90;25.50;96991.00;;;;5089766;28;20207;-76
2022/08/04 07:20:42;;;;;;;8.60;4.60;;;23.30;99.90;25.60;96990.00;;;;5088780;28;20262;-75
2022/08/04 07:23:31;;;;;;;9.67;4.03;;;23.50;99.90;25.70;96988.00;;;;5080135;28;20198;-75
2022/08/04 07:26:20;;;;;;;10.27;4.30;;;23.60;99.90;26.00;96993.00;;;;5088045;28;20198;-76
2022/08/04 07:29:12;;;;;;;6.17;4.37;;;23.90;99.90;26.20;96989.00;;;;5085844;28;20211;-75
2022/08/04 07:32:01;;;;;;;6.17;3.67;;;24.00;99.90;26.50;96990.00;;;;5085694;28;20230;-76
2022/08/04 07:34:51;;;;;;;8.30;4.93;;;24.20;99.90;26.70;97000.00;;;;5088399;28;20675;-76
2022/08/04 07:37:40;;;;;;;8.53;4.23;;;24.40;99.90;26.90;96989.00;;;;5094819;28;20192;-75
2022/08/04 07:40:29;;;;;;;7.23;4.37;;;24.60;99.90;27.10;96988.00;;;;5075230;28;20208;-75
2022/08/04 07:43:19;;;;;;;6.63;4.23;;;24.80;99.90;27.10;96987.00;;;;5087100;28;20212;-76
2022/08/04 07:46:11;;;;;;;4.13;3.73;;;25.00;99.90;27.20;96990.00;;;;5080822;28;20201;-76
2022/08/04 07:49:00;;;;;;;4.87;4.27;;;25.10;99.90;27.40;96993.00;;;;5083511;28;20670;-76
2022/08/04 07:51:50;;;;;;;5.07;3.90;;;25.30;99.90;27.50;96989.00;;;;5077628;28;20229;-75
2022/08/04 07:54:40;;;;;;;6.53;3.93;;;25.40;99.90;27.60;96982.00;;;;5080594;28;20222;-77
2022/08/04 07:57:29;;;;;;;3.90;3.60;;;25.50;99.90;27.40;96984.00;;;;5082346;28;20242;-77
2022/08/04 08:00:18;;;;;;;3.57;2.70;;;25.60;99.90;27.50;96976.00;;;;5088171;28;20290;-76
2022/08/04 08:03:09;;;;;;;5.17;2.90;;;25.70;99.90;27.80;96977.00;;;;5085195;28;20199;-76
2022/08/04 08:05:58;;;;;;;3.37;2.50;;;25.80;99.90;27.50;96984.00;;;;5087575;28;20213;-77
2022/08/04 08:08:47;;;;;;;4.43;3.07;;;25.80;99.90;27.80;96977.00;;;;5087964;28;20214;-76
2022/08/04 08:11:35;;;;;;;8.33;3.30;;;25.90;99.90;28.40;96990.00;;;;5088921;28;20682;-77
2022/08/04 08:14:25;;;;;;;5.10;3.33;;;26.00;99.90;28.60;96982.00;;;;5090464;28;20262;-77
2022/08/04 08:17:14;;;;;;;6.77;2.83;;;26.20;99.90;28.20;96993.00;;;;5088060;28;20200;-77
2022/08/04 08:20:07;;;;;;;3.30;2.33;;;26.40;99.90;28.70;96988.00;;;;5087732;28;20201;-76
2022/08/04 08:22:56;;;;;;;4.90;3.10;;;26.50;99.90;28.70;96990.00;;;;5070775;28;20210;-76
2022/08/04 08:25:45;;;;;;;3.77;2.67;;;26.60;99.70;29.10;96985.00;;;;5086209;28;20221;-75
2022/08/04 08:28:34;;;;;;;3.40;2.73;;;26.80;99.40;29.40;96985.00;;;;5087443;28;20200;-77
2022/08/04 08:31:23;;;;;;;2.63;2.30;;;27.00;98.70;29.50;96990.00;;;;5092089;28;20217;-76
2022/08/04 08:34:14;;;;;;;4.13;2.30;;;27.20;98.40;29.60;96987.00;;;;5085201;28;20217;-75
2022/08/04 08:37:16;;;;;;;3.27;2.97;;;27.30;96.70;29.80;96985.00;;;;5086767;28;20229;-76
2022/08/04 08:40:27;;;;;;;2.17;1.90;;;27.50;95.90;29.90;96982.00;;;;5082173;28;20196;-76
2022/08/04 08:43:42;;;;;;;4.20;2.60;;;27.60;93.60;30.20;96981.00;;;;5078777;28;20248;-75
2022/08/04 08:46:53;;;;;;;4.83;2.60;;;27.80;93.80;30.50;96982.00;;;;5074662;28;20196;-75
2022/08/04 08:50:18;;;;;;;1.80;1.70;;;28.00;93.60;30.10;96987.00;;;;5081480;28;20215;-76
2022/08/04 08:53:30;;;;;;;2.07;1.90;;;28.20;91.60;30.60;96988.00;;;;5081251;28;20236;-75
2022/08/04 08:56:34;;;;;;;2.87;1.97;;;28.30;91.60;30.70;96987.00;;;;5088248;28;20202;-76
2022/08/04 08:59:44;;;;;;;3.90;2.00;;;28.50;91.10;30.90;96986.00;;;;5084411;28;20597;-76
2022/08/04 09:03:24;;;;;;;1.90;1.80;;;28.60;90.50;31.10;97000.00;;;;5080139;28;20206;-75
2022/08/04 09:06:45;;;;;;;2.73;2.07;;;28.80;90.10;30.90;96996.00;;;;5085451;28;20197;-76
2022/08/04 09:10:02;;;;;;;1.90;1.73;;;28.90;86.40;31.20;96993.00;;;;5083716;28;20204;-76
2022/08/04 09:12:56;;;;;;;3.77;2.27;;;28.90;84.90;30.90;96998.00;;;;5089739;28;20242;-76
2022/08/04 09:15:54;;;;;;;2.97;2.00;;;29.00;84.40;31.20;97001.00;;;;5089734;28;20236;-75
2022/08/04 09:18:50;;;;;;;6.40;2.00;;;29.10;82.60;31.10;96999.00;;;;5085605;28;20197;-74
2022/08/04 09:21:45;;;;;;;2.03;1.90;;;29.20;79.20;31.00;96992.00;;;;5084767;28;20232;-76
2022/08/04 09:24:51;;;;;;;2.20;2.00;;;29.20;80.10;30.90;96993.00;;;;5069785;28;20237;-72
2022/08/04 09:27:47;;;;;;;2.40;2.20;;;29.30;80.80;30.90;96993.00;;;;5077684;28;20198;-75
2022/08/04 09:30:43;;;;;;;2.20;1.93;;;29.20;80.30;30.80;96987.00;;;;5078373;28;20594;-74
2022/08/04 09:33:54;;;;;;;2.63;2.30;;;29.30;76.40;31.30;96985.00;;;;5083987;28;20249;-75
2022/08/04 09:36:54;;;;;;;3.73;2.10;;;29.30;80.10;31.50;96992.00;;;;5076022;28;20216;-75
2022/08/04 09:39:56;;;;;;;2.10;1.90;;;29.40;79.70;31.80;96984.00;;;;5072266;28;20589;-74
2022/08/04 09:43:00;;;;;;;6.32;2.72;;;29.50;78.50;31.80;96982.00;;;;5071270;28;20206;-76
2022/08/04 09:46:01;;;;;;;3.00;1.90;;;29.70;77.40;31.80;96982.00;;;;5086162;28;20224;-76
2022/08/04 09:48:58;;;;;;;4.28;2.28;;;29.80;78.30;32.10;96969.00;;;;5084289;28;20206;-76
2022/08/04 09:52:01;;;;;;;2.25;2.05;;;30.00;77.40;32.70;96972.00;;;;5079503;28;20666;-76
2022/08/04 09:55:02;;;;;;;1.92;1.80;;;30.20;78.40;32.70;96980.00;;;;5077056;28;20236;-76
2022/08/04 09:58:00;;;;;;;2.20;2.00;;;30.40;75.80;33.10;96964.00;;;;5075692;28;20211;-77
2022/08/04 10:00:57;;;;;;;1.95;1.83;;;30.60;75.90;32.80;96957.00;;;;5080556;28;20209;-75
2022/08/04 10:03:51;;;;;;;3.13;2.55;;;30.70;72.30;32.50;96953.00;;;;5080715;28;20204;-76
2022/08/04 10:07:13;;;;;;;2.30;2.13;;;30.80;73.10;33.30;96962.00;;;;5085577;28;20207;-76
2022/08/04 10:10:17;;;;;;;2.92;1.80;;;30.90;74.90;33.20;96955.00;;;;5089719;28;20700;-77
2022/08/04 10:13:26;;;;;;;2.10;1.90;;;31.10;76.30;33.50;96945.00;;;;5086194;28;20213;-74
2022/08/04 10:16:35;;;;;;;2.38;1.98;;;31.20;73.80;33.80;96950.00;;;;5081908;28;20209;-75
2022/08/04 10:19:30;;;;;;;2.78;2.20;;;31.40;74.00;34.40;96941.00;;;;5071164;28;20209;-75
2022/08/04 10:22:25;;;;;;;1.90;1.80;;;31.60;73.90;34.50;96942.00;;;;5080887;28;20201;-76
2022/08/04 10:25:32;;;;;;;2.50;2.30;;;31.90;73.10;34.90;96946.00;;;;5076637;28;20229;-74
2022/08/04 10:28:23;;;;;;;2.90;2.60;;;32.10;72.40;33.60;96944.00;;;;5071981;28;20222;-76
2022/08/04 10:31:23;;;;;;;2.95;2.22;;;32.20;70.10;33.00;96945.00;;;;5079244;28;20202;-74
2022/08/04 10:34:18;;;;;;;3.88;2.10;;;32.10;67.90;33.30;96942.00;;;;5081238;28;20239;-77
2022/08/04 10:37:20;;;;;;;2.50;2.30;;;32.00;70.70;34.20;96927.00;;;;5089515;28;20686;-77
2022/08/04 10:40:39;;;;;;;2.40;1.90;;;32.00;70.40;34.70;96927.00;;;;5093239;28;20245;-76
2022/08/04 10:43:43;;;;;;;2.70;2.00;;;32.20;68.10;34.00;96930.00;;;;5091501;28;20235;-77
2022/08/04 10:46:37;;;;;;;2.03;1.85;;;32.30;66.40;34.30;96925.00;;;;5089722;28;20235;-76
2022/08/04 10:49:35;;;;;;;3.10;2.38;;;32.40;67.00;32.70;96911.00;;;;5083356;28;20207;-76
2022/08/04 10:52:34;;;;;;;2.50;2.30;;;32.00;65.30;33.20;96902.00;;;;5081017;28;20199;-76
2022/08/04 10:55:32;;;;;;;2.35;2.25;;;31.80;66.30;33.00;96907.00;;;;5078034;28;20217;-75
2022/08/04 10:58:27;;;;;;;3.83;2.60;;;31.50;65.00;34.10;96901.00;;;;5085911;28;20198;-76
2022/08/04 11:01:23;;;;;;;3.88;2.35;;;31.70;66.80;35.10;96905.00;;;;5080353;28;20201;-78
2022/08/04 11:04:30;;;;;;;2.53;2.33;;;32.00;67.90;35.30;96908.00;;;;5083044;28;20241;-76
2022/08/04 11:07:20;;;;;;;3.55;2.83;;;32.40;68.30;35.40;96906.00;;;;5083160;28;20204;-76
2022/08/04 11:10:09;;;;;;;2.53;2.40;;;32.70;67.90;35.60;96898.00;;;;5089141;28;20610;-76
2022/08/04 11:13:05;;;;;;;3.65;2.22;;;32.90;66.90;35.50;96892.00;;;;5084425;28;20588;-75
2022/08/04 11:15:56;;;;;;;5.32;2.60;;;33.20;65.50;36.40;96890.00;;;;5082506;28;20222;-74
2022/08/04 11:18:56;;;;;;;2.53;2.30;;;33.40;65.30;36.60;96887.00;;;;5075939;28;20201;-75
2022/08/04 11:21:53;;;;;;;2.88;2.30;;;33.70;65.90;36.30;96892.00;;;;5078828;28;20203;-75
2022/08/04 11:24:49;;;;;;;4.65;2.28;;;33.90;60.90;36.40;96893.00;;;;5079537;28;20609;-74
2022/08/04 11:27:49;;;;;;;2.83;2.38;;;34.00;61.50;35.30;96885.00;;;;5079222;28;20396;-78
2022/08/04 11:30:47;;;;;;;2.22;2.03;;;34.00;60.50;35.80;96878.00;;;;5078555;28;20207;-76
2022/08/04 11:33:44;;;;;;;3.65;2.28;;;33.80;59.70;37.10;96876.00;;;;5075188;28;20230;-74
2022/08/04 11:36:41;;;;;;;3.53;2.25;;;34.10;62.80;36.10;96878.00;;;;5078430;28;20195;-75
2022/08/04 11:39:36;;;;;;;2.60;2.40;;;34.20;60.30;36.90;96876.00;;;;5087508;28;20721;-77
2022/08/04 11:42:28;;;;;;;3.60;2.33;;;34.30;61.60;37.60;96871.00;;;;5081400;28;20203;-75
2022/08/04 11:45:22;;;;;;;2.53;2.33;;;34.60;61.60;37.90;96870.00;;;;5079010;28;20230;-74
2022/08/04 11:48:19;;;;;;;3.03;2.00;;;34.90;61.40;38.30;96866.00;;;;5080907;28;20395;-74
2022/08/04 11:51:09;;;;;;;2.55;2.35;;;35.20;61.40;38.90;96856.00;;;;5081349;28;20226;-74
2022/08/04 11:53:58;;;;;;;2.03;1.92;;;35.60;61.80;39.10;96856.00;;;;5079563;28;20221;-74
2022/08/04 11:56:48;;;;;;;2.13;1.90;;;35.50;59.70;39.40;96914.00;;;;5083123;28;20203;-75
2022/08/04 11:59:38;;;;;;;2.10;2.00;;;36.20;59.90;38.30;96860.00;;;;5081465;28;20208;-74
2022/08/04 12:02:48;;;;;;;2.22;2.10;;;36.10;58.20;38.00;96861.00;;;;5086828;28;20206;-75
2022/08/04 12:06:00;;;;;;;2.08;1.95;;;36.10;57.20;38.70;96857.00;;;;5097483;22;20262;-86
2022/08/04 12:09:07;;;;;;;2.95;2.40;;;36.10;57.90;39.20;96855.00;;;;5104335;27;20233;-86
2022/08/04 12:12:07;;;;;;;2.25;2.05;;;36.20;58.10;39.20;96847.00;;;;5102067;27;20703;-86
2022/08/04 12:15:12;;;;;;;3.22;2.45;;;36.40;57.40;38.90;96855.00;;;;5101614;27;20210;-86
2022/08/04 12:18:10;;;;;;;3.47;2.33;;;36.50;55.70;39.80;96847.00;;;;5102506;28;20283;-87
2022/08/04 12:21:07;;;;;;;3.33;3.03;;;36.70;57.00;40.00;96857.00;;;;5104238;28;20206;-87
2022/08/04 12:24:02;;;;;;;4.45;2.40;;;36.90;56.90;40.10;96852.00;;;;5104675;28;20238;-86
2022/08/04 12:26:57;;;;;;;2.60;2.40;;;37.10;55.80;39.60;96853.00;;;;5102531;27;21060;-88
2022/08/04 12:29:47;;;;;;;2.65;2.45;;;37.30;54.40;39.60;96847.00;;;;5101530;27;20203;-88
2022/08/04 12:32:43;;;;;;;2.47;2.00;;;37.20;53.60;38.30;96852.00;;;;5100699;27;20592;-89
2022/08/04 12:35:40;;;;;;;3.38;2.55;;;37.20;54.00;37.50;96847.00;;;;5101251;28;20685;-90
2022/08/04 12:38:33;;;;;;;2.92;2.15;;;36.80;53.40;38.90;96846.00;;;;5101655;28;20214;-88
2022/08/04 12:41:28;;;;;;;2.53;2.33;;;36.70;53.70;39.10;96843.00;;;;5100547;27;20472;-88
2022/08/04 12:44:17;;;;;;;1.55;1.45;;;36.60;53.10;39.30;96848.00;;;;5098420;28;20589;-89
2022/08/04 12:47:09;;;;;;;2.80;2.17;;;36.70;54.60;39.30;96849.00;;;;5102376;28;20210;-89
2022/08/04 12:50:02;;;;;;;2.17;2.08;;;36.80;54.70;38.90;96844.00;;;;5103973;27;20203;-89
2022/08/04 12:52:55;;;;;;;3.40;2.10;;;36.90;54.30;37.90;96840.00;;;;5098318;28;20553;-89
2022/08/04 12:55:51;;;;;;;3.83;2.33;;;36.60;53.60;37.90;96848.00;;;;5099840;28;20206;-90
2022/08/04 12:58:43;;;;;;;2.63;2.45;;;36.60;53.40;36.10;96846.00;;;;5098107;28;20275;-90
2022/08/04 13:01:33;;;;;;;4.05;2.40;;;36.40;52.50;37.40;96844.00;;;;5098399;27;20800;-89
2022/08/04 13:04:25;;;;;;;3.65;2.15;;;36.20;52.20;39.10;96839.00;;;;5101200;28;20234;-87
2022/08/04 13:07:19;;;;;;;2.60;2.40;;;36.20;53.00;39.10;96831.00;;;;5100061;28;20601;-89
2022/08/04 13:10:13;;;;;;;2.35;2.15;;;36.50;53.40;39.40;96825.00;;;;5100652;28;20199;-89
2022/08/04 13:13:04;;;;;;;6.78;2.15;;;36.70;53.40;39.20;96832.00;;;;5098312;28;20198;-90
2022/08/04 13:15:59;;;;;;;2.22;2.13;;;36.90;53.50;40.60;96820.00;;;;5102130;28;20207;-90
2022/08/04 13:18:51;;;;;;;2.20;2.10;;;37.20;53.60;41.60;96823.00;;;;5102350;27;20225;-88
2022/08/04 13:21:46;;;;;;;2.67;2.47;;;37.70;54.70;41.80;96816.00;;;;5096934;28;20879;-88
2022/08/04 13:24:37;;;;;;;2.20;2.00;;;38.20;53.20;41.70;96811.00;;;;5095042;28;20227;-88